createdAt,value
2023-02-08T00:02:19.498Z,65.71
2023-02-08T00:07:50.600Z,65.82
2023-02-08T00:13:21.837Z,65.77
2023-02-08T00:18:52.813Z,65.75
2023-02-08T00:24:23.623Z,65.70
2023-02-08T00:29:54.572Z,65.66
2023-02-08T00:35:25.697Z,65.20
2023-02-08T00:40:57.201Z,65.61
2023-02-08T00:46:29.264Z,65.36
2023-02-08T00:52:00.405Z,65.60
2023-02-08T00:57:35.352Z,65.73
2023-02-08T01:03:06.414Z,65.37
2023-02-08T01:08:38.005Z,65.24
2023-02-08T01:14:10.402Z,65.18
2023-02-08T01:19:42.661Z,64.87
2023-02-08T01:25:14.002Z,64.97
2023-02-08T01:30:45.311Z,65.40
2023-02-08T01:36:17.031Z,65.56
2023-02-08T01:41:48.719Z,65.79
2023-02-08T01:47:20.112Z,65.17
2023-02-08T01:52:52.047Z,65.33
2023-02-08T01:58:25.153Z,65.36
2023-02-08T02:03:57.441Z,65.08
2023-02-08T02:09:37.300Z,65.08
2023-02-08T02:15:09.878Z,64.97
2023-02-08T02:20:59.716Z,65.27
2023-02-08T02:26:48.253Z,65.47
2023-02-08T02:32:43.843Z,64.96
2023-02-08T02:38:30.645Z,64.82
2023-02-08T02:44:04.053Z,65.18
2023-02-08T02:50:12.719Z,64.93
2023-02-08T02:55:47.497Z,64.81
2023-02-08T03:01:26.320Z,64.76
2023-02-08T03:07:12.697Z,64.83
2023-02-08T03:13:01.828Z,64.85
2023-02-08T03:18:46.687Z,64.88
2023-02-08T03:24:28.962Z,65.06
2023-02-08T03:30:09.394Z,64.85
2023-02-08T03:35:50.693Z,64.90
2023-02-08T03:41:27.267Z,65.18
2023-02-08T03:47:03.059Z,64.75
2023-02-08T03:52:35.343Z,64.84
2023-02-08T03:58:18.436Z,64.79
2023-02-08T04:03:53.429Z,64.62
2023-02-08T04:09:24.533Z,64.55
2023-02-08T04:14:56.048Z,64.38
2023-02-08T04:20:27.185Z,64.56
2023-02-08T04:25:58.500Z,64.73
2023-02-08T04:31:30.075Z,64.90
2023-02-08T04:37:01.602Z,65.12
2023-02-08T04:42:32.752Z,64.34
2023-02-08T04:48:04.740Z,64.37
2023-02-08T04:53:35.953Z,64.42
2023-02-08T04:59:08.150Z,64.29
2023-02-08T05:04:39.377Z,64.15
2023-02-08T05:10:10.749Z,64.88
2023-02-08T05:15:42.147Z,64.67
2023-02-08T05:21:13.684Z,64.54
2023-02-08T05:26:44.640Z,64.73
2023-02-08T05:32:15.834Z,64.40
2023-02-08T05:37:47.172Z,64.20
2023-02-08T05:43:18.478Z,64.51
2023-02-08T05:48:49.643Z,64.47
2023-02-08T05:54:20.571Z,64.49
2023-02-08T05:59:51.817Z,64.21
2023-02-08T06:05:23.250Z,64.43
2023-02-08T06:10:54.380Z,64.57
2023-02-08T06:16:25.364Z,64.46
2023-02-08T06:21:57.067Z,64.44
2023-02-08T06:27:28.784Z,63.89
2023-02-08T06:32:59.857Z,64.43
2023-02-08T06:38:31.206Z,64.24
2023-02-08T06:44:02.794Z,63.94
2023-02-08T06:49:33.985Z,64.10
2023-02-08T06:55:05.494Z,64.54
2023-02-08T07:00:36.598Z,64.30
2023-02-08T07:06:15.315Z,64.19
2023-02-08T07:11:46.643Z,64.04
2023-02-08T07:17:17.702Z,64.79
2023-02-08T07:22:49.394Z,63.92
2023-02-08T07:28:20.683Z,64.04
2023-02-08T07:33:52.130Z,64.14
2023-02-08T07:39:23.939Z,64.13
2023-02-08T07:44:54.957Z,63.63
2023-02-08T07:50:26.040Z,64.18
2023-02-08T07:55:57.414Z,63.61
2023-02-08T08:01:28.658Z,63.94
2023-02-08T08:06:59.823Z,63.66
2023-02-08T08:12:31.175Z,63.74
2023-02-08T08:18:02.034Z,64.25
2023-02-08T08:23:36.493Z,64.20
2023-02-08T08:29:07.895Z,63.98
2023-02-08T08:34:39.006Z,64.39
2023-02-08T08:40:10.532Z,64.46
2023-02-08T08:45:41.530Z,64.62
2023-02-08T08:51:13.299Z,64.75
2023-02-08T08:56:44.663Z,64.78
2023-02-08T09:02:16.293Z,64.86
2023-02-08T09:07:47.570Z,64.82
2023-02-08T09:13:22.043Z,65.23
2023-02-08T09:18:53.385Z,65.03
2023-02-08T09:24:24.767Z,65.02
2023-02-08T09:29:55.804Z,64.78
2023-02-08T09:35:27.009Z,64.31
2023-02-08T09:41:22.109Z,64.77
2023-02-08T09:47:07.393Z,64.55
2023-02-08T09:52:44.284Z,64.73
2023-02-08T09:58:28.454Z,64.91
2023-02-08T10:04:17.833Z,65.22
2023-02-08T10:09:48.717Z,65.24
2023-02-08T10:15:32.447Z,65.22
2023-02-08T10:21:14.190Z,64.98
2023-02-08T10:26:54.115Z,65.00
2023-02-08T10:32:48.110Z,65.44
2023-02-08T10:38:45.317Z,65.93
2023-02-08T10:44:41.839Z,65.45
2023-02-08T10:50:30.203Z,65.42
2023-02-08T10:56:02.281Z,65.72
2023-02-08T11:01:34.271Z,65.27
2023-02-08T11:07:21.636Z,65.98
2023-02-08T11:12:57.460Z,65.49
2023-02-08T11:18:50.366Z,65.51
2023-02-08T11:24:33.344Z,65.54
2023-02-08T11:30:25.034Z,65.66
2023-02-08T11:36:05.068Z,66.24
2023-02-08T11:41:37.783Z,66.00
2023-02-08T11:47:10.683Z,66.21
2023-02-08T11:52:43.088Z,66.56
2023-02-08T11:58:24.885Z,66.90
2023-02-08T12:03:58.537Z,66.77
2023-02-08T12:09:39.567Z,66.90
2023-02-08T12:15:17.309Z,66.75
2023-02-08T12:20:54.841Z,66.92
2023-02-08T12:26:34.778Z,66.98
2023-02-08T12:32:17.665Z,67.17
2023-02-08T12:38:13.070Z,67.16
2023-02-08T12:43:58.889Z,67.30
2023-02-08T12:49:41.820Z,67.47
2023-02-08T12:55:26.034Z,66.93
2023-02-08T13:01:02.647Z,67.25
2023-02-08T13:06:46.903Z,67.26
2023-02-08T13:12:27.467Z,67.35
2023-02-08T13:18:00.575Z,66.94
2023-02-08T13:23:51.726Z,67.24
2023-02-08T13:29:27.178Z,67.46
2023-02-08T13:35:14.087Z,67.47
2023-02-08T13:40:46.007Z,67.57
2023-02-08T13:46:19.245Z,67.38
2023-02-08T13:51:54.602Z,67.61
2023-02-08T13:57:56.570Z,67.36
2023-02-08T14:03:28.947Z,67.53
2023-02-08T14:09:16.292Z,67.70
2023-02-08T14:15:25.349Z,67.60
2023-02-08T14:21:07.030Z,67.93
2023-02-08T14:26:38.304Z,67.68
2023-02-08T14:32:10.827Z,67.32
2023-02-08T14:37:44.110Z,67.24
2023-02-08T14:43:21.405Z,67.37
2023-02-08T14:48:53.267Z,67.43
2023-02-08T14:54:47.653Z,67.42
2023-02-08T15:00:33.315Z,67.49
2023-02-08T15:06:30.905Z,67.61
2023-02-08T15:12:03.743Z,67.50
2023-02-08T15:17:38.072Z,67.10
2023-02-08T15:23:22.184Z,67.33
2023-02-08T15:28:53.553Z,67.03
2023-02-08T15:34:25.817Z,66.67
2023-02-08T15:39:59.345Z,67.17
2023-02-08T15:45:30.995Z,66.96
2023-02-08T15:51:05.253Z,67.23
2023-02-08T15:56:40.138Z,67.15
2023-02-08T16:02:23.592Z,67.23
2023-02-08T16:07:56.024Z,67.08
2023-02-08T16:13:38.921Z,67.20
2023-02-08T16:19:29.016Z,67.25
2023-02-08T16:25:37.188Z,67.30
2023-02-08T16:31:08.855Z,67.34
2023-02-08T16:36:42.111Z,67.18
2023-02-08T16:42:31.555Z,67.30
2023-02-08T16:48:13.349Z,67.36
2023-02-08T16:53:51.577Z,67.24
2023-02-08T16:59:23.471Z,67.16
2023-02-08T17:04:55.006Z,67.04
2023-02-08T17:10:29.379Z,66.95
2023-02-08T17:16:00.903Z,66.93
2023-02-08T17:21:32.513Z,66.99
2023-02-08T17:27:04.009Z,66.66
2023-02-08T17:32:35.290Z,66.85
2023-02-08T17:38:06.675Z,66.94
2023-02-08T17:43:38.435Z,66.94
2023-02-08T17:49:09.981Z,67.02
2023-02-08T17:54:41.040Z,66.58
2023-02-08T18:00:22.701Z,66.83
2023-02-08T18:05:58.164Z,66.63
2023-02-08T18:11:29.280Z,66.79
2023-02-08T18:17:01.513Z,66.83
2023-02-08T18:22:33.661Z,66.75
2023-02-08T18:28:05.507Z,66.89
2023-02-08T18:33:37.543Z,66.83
2023-02-08T18:39:09.102Z,66.49
2023-02-08T18:44:40.196Z,66.33
2023-02-08T18:50:11.950Z,66.43
2023-02-08T18:55:43.943Z,66.66
2023-02-08T19:01:17.362Z,66.87
2023-02-08T19:06:48.913Z,66.89
2023-02-08T19:12:21.363Z,66.26
2023-02-08T19:17:54.403Z,66.39
2023-02-08T19:23:25.702Z,66.27
2023-02-08T19:29:00.966Z,66.35
2023-02-08T19:34:32.526Z,66.42
2023-02-08T19:40:05.806Z,66.28
2023-02-08T19:45:37.165Z,66.28
2023-02-08T19:51:08.731Z,66.58
2023-02-08T19:56:41.000Z,66.40
2023-02-08T20:02:14.181Z,66.26
2023-02-08T20:07:45.449Z,66.11
2023-02-08T20:13:16.938Z,66.14
2023-02-08T20:18:48.494Z,66.09
2023-02-08T20:24:19.693Z,66.32
2023-02-08T20:29:50.709Z,66.23
2023-02-08T20:35:22.716Z,66.23
2023-02-08T20:41:01.858Z,66.08
2023-02-08T20:46:34.956Z,66.03
2023-02-08T20:52:06.174Z,66.18
2023-02-08T20:57:37.313Z,66.03
2023-02-08T21:03:08.394Z,65.70
2023-02-08T21:08:39.713Z,66.10
2023-02-08T21:14:19.131Z,66.20
2023-02-08T21:19:50.538Z,65.98
2023-02-08T21:25:21.813Z,66.06
2023-02-08T21:31:00.858Z,66.33
2023-02-08T21:36:32.946Z,66.26
2023-02-08T21:42:04.423Z,66.34
2023-02-08T21:47:35.840Z,66.24
2023-02-08T21:53:25.437Z,66.45
2023-02-08T21:58:56.697Z,66.48
2023-02-08T22:04:27.997Z,66.75
2023-02-08T22:09:59.367Z,66.42
2023-02-08T22:15:30.706Z,66.68
2023-02-08T22:21:04.611Z,66.29
2023-02-08T22:26:35.913Z,66.44
2023-02-08T22:32:10.041Z,66.66
2023-02-08T22:37:41.494Z,66.75
2023-02-08T22:43:12.538Z,66.88
2023-02-08T22:48:43.897Z,66.81
2023-02-08T22:54:15.187Z,66.47
2023-02-08T22:59:47.789Z,66.28
2023-02-08T23:05:18.857Z,65.99
2023-02-08T23:10:50.165Z,66.28
2023-02-08T23:16:21.207Z,66.09
2023-02-08T23:21:52.528Z,66.02
2023-02-08T23:27:23.456Z,66.12
2023-02-08T23:32:54.631Z,66.03
2023-02-08T23:38:25.644Z,66.27
2023-02-08T23:43:57.025Z,65.96
2023-02-08T23:49:28.225Z,66.03
2023-02-08T23:54:59.094Z,65.75
